Data for 01/29/2018

Time Sea-Level Adjusted Pressure Absolute Pressure Temperature Relative Humidity Dew Point   
(mb) (inHg) (mb) (inHg) (C) (F) (%) (C) (F)
00:05 1028 30.36 857 25.31 4.4 39.9 53 -4.2 24.4
00:10 1028 30.36 857 25.31 4.3 39.7 54 -4.2 24.5
00:15 1028 30.36 857 25.31 4.2 39.6 54 -4.2 24.4
00:20 1028 30.36 857 25.31 4.1 39.5 55 -4.2 24.4
00:25 1028 30.36 857 25.31 4.1 39.4 55 -4.1 24.6
00:30 1027 30.33 857 25.31 4.3 39.7 54 -4.2 24.4
00:35 1027 30.33 857 25.31 4.4 39.9 55 -3.9 25
00:40 1027 30.33 857 25.31 4.4 39.9 55 -3.9 24.9
00:45 1027 30.33 857 25.31 4.6 40.2 54 -4 24.9
00:50 1027 30.33 857 25.31 4.8 40.7 53 -3.9 25
00:55 1027 30.33 856 25.28 4.7 40.5 54 -3.8 25.2
01:00 1027 30.33 856 25.28 4.7 40.4 52 -4.2 24.4
01:05 1027 30.33 856 25.28 5.1 41.2 50 -4.4 24.2
01:10 1027 30.33 856 25.28 5.6 42.1 49 -4.4 24
01:15 1027 30.33 856 25.28 5.9 42.6 48 -4.3 24.3
01:20 1027 30.33 856 25.28 5.9 42.6 49 -4 24.8
01:25 1027 30.33 856 25.28 5.7 42.3 49 -4.2 24.5
01:30 1027 30.33 856 25.28 5.5 41.9 50 -4 24.7
01:35 1027 30.33 856 25.28 5.4 41.7 51 -4.1 24.7
01:40 1027 30.33 856 25.28 5.2 41.3 52 -4 24.8
01:45 1027 30.33 856 25.28 4.9 40.9 53 -4 24.9
01:50 1027 30.33 856 25.28 4.9 40.8 52 -4.1 24.7
01:55 1027 30.33 856 25.28 5 41 52 -4.1 24.5
02:00 1027 30.33 856 25.28 5.1 41.2 52 -3.8 25.1
02:05 1027 30.33 856 25.28 5 41 52 -3.9 24.9
02:10 1027 30.33 856 25.28 4.9 40.9 53 -3.9 24.9
02:15 1027 30.33 856 25.28 4.8 40.6 53 -4.1 24.7
02:20 1027 30.33 856 25.28 4.9 40.9 52 -4 24.8
02:25 1027 30.33 856 25.28 5 41 52 -3.9 24.9
02:30 1027 30.33 856 25.28 4.9 40.9 52 -4.1 24.6
02:35 1027 30.33 856 25.28 5.2 41.3 51 -4.2 24.4
02:40 1027 30.33 856 25.28 5.3 41.5 51 -4 24.7
02:45 1027 30.33 856 25.28 5.1 41.1 52 -4 24.8
02:50 1027 30.33 856 25.28 5 40.9 52 -4.1 24.6
02:55 1027 30.33 856 25.28 5.1 41.1 51 -4.2 24.4
03:00 1027 30.33 856 25.28 5.2 41.3 51 -4.2 24.4
03:05 1027 30.33 856 25.28 5.2 41.4 50 -4.4 24.2
03:10 1027 30.33 856 25.28 5.3 41.5 50 -4.4 24.1
03:15 1027 30.33 856 25.28 5.2 41.4 50 -4.3 24.2
03:20 1027 30.33 856 25.28 5.3 41.5 49 -4.6 23.7
03:25 1027 30.33 856 25.28 5.6 42 48 -4.6 23.7
03:30 1027 30.33 856 25.28 5.6 42 48 -4.5 23.9
03:35 1027 30.33 856 25.28 5.5 41.9 49 -4.3 24.3
03:40 1027 30.33 856 25.28 5.4 41.8 49 -4.3 24.2
03:45 1027 30.33 856 25.28 5.2 41.4 51 -4 24.8
03:50 1027 30.33 856 25.28 5 41.1 51 -4.2 24.4
03:55 1027 30.33 856 25.28 5 41 51 -4.4 24.1
04:00 1027 30.33 856 25.28 5 41 52 -4.1 24.6
04:05 1027 30.33 856 25.28 4.9 40.9 51 -4.4 24
04:10 1027 30.33 856 25.28 5.1 41.1 51 -4.3 24.3
04:15 1027 30.33 856 25.28 5.1 41.2 49 -4.6 23.7
04:20 1027 30.33 856 25.28 5.3 41.5 49 -4.6 23.8
04:25 1027 30.33 856 25.28 5.5 41.8 48 -4.8 23.3
04:30 1027 30.33 856 25.28 5.6 42.1 47 -4.9 23.1
04:35 1027 30.33 856 25.28 5.7 42.3 46 -5 23.1
04:40 1027 30.33 856 25.28 5.7 42.3 48 -4.4 24
04:45 1027 30.33 856 25.28 5.4 41.6 49 -4.4 24.1
04:50 1027 30.33 856 25.28 5.2 41.4 50 -4.3 24.3
04:55 1027 30.33 856 25.28 5.1 41.2 50 -4.4 24.1
05:00 1027 30.33 856 25.28 5.2 41.3 49 -4.6 23.8
05:05 1027 30.33 856 25.28 5.3 41.6 47 -5 23
05:10 1027 30.33 856 25.28 5.6 42 49 -4.3 24.2
05:15 1027 30.33 856 25.28 5.4 41.7 49 -4.4 24
05:20 1027 30.33 856 25.28 5.3 41.6 49 -4.6 23.7
05:25 1027 30.33 856 25.28 5.5 41.8 49 -4.5 23.9
05:30 1027 30.33 856 25.28 5.5 41.9 49 -4.5 23.9
05:35 1027 30.33 856 25.28 5.3 41.6 48 -4.7 23.6
05:40 1027 30.33 856 25.28 5.6 42.1 46 -5.1 22.8
05:45 1027 30.33 856 25.28 5.7 42.3 47 -4.8 23.4
05:50 1027 30.33 856 25.28 5.7 42.3 46 -4.9 23.2
05:55 1026 30.3 856 25.28 5.8 42.4 45 -5.2 22.6
06:00 1026 30.3 856 25.28 5.8 42.4 45 -5.3 22.5
06:05 1026 30.3 856 25.28 5.8 42.5 42 -6.2 20.9
06:10 1027 30.33 856 25.28 6.3 43.3 44 -5.1 22.9
06:15 1026 30.3 856 25.28 6.3 43.3 40 -6.3 20.7
06:20 1026 30.3 856 25.28 6.6 43.8 44 -4.9 23.2
06:25 1026 30.3 856 25.28 6.1 42.9 47 -4.3 24.2
06:30 1026 30.3 856 25.28 5.5 42 46 -5 22.9
06:35 1026 30.3 855 25.25 5.5 42 46 -5.1 22.8
06:40 1026 30.3 855 25.25 5.6 42.1 47 -4.9 23.2
06:45 1026 30.3 855 25.25 5.6 42 46 -5.1 22.9
06:50 1026 30.3 855 25.25 5.5 41.9 45 -5.4 22.3
06:55 1026 30.3 855 25.25 5.5 42 44 -5.7 21.8
07:00 1026 30.3 855 25.25 5.8 42.5 43 -5.8 21.6
07:05 1026 30.3 855 25.25 6.1 43 41 -6.2 20.9
07:10 1026 30.3 855 25.25 6.2 43.2 43 -5.5 22.2
07:15 1026 30.3 855 25.25 5.9 42.6 46 -4.8 23.4
07:20 1026 30.3 855 25.25 5.5 41.8 47 -5 23
07:25 1026 30.3 855 25.25 5.4 41.8 47 -5.1 22.9
07:30 1026 30.3 855 25.25 5.4 41.8 46 -5.3 22.4
07:35 1026 30.3 855 25.25 5.5 42 45 -5.6 22
07:40 1026 30.3 855 25.25 5.5 41.9 46 -5.1 22.9
07:45 1026 30.3 855 25.25 5.4 41.6 45 -5.7 21.7
07:50 1026 30.3 855 25.25 5.6 42 44 -5.9 21.4
07:55 1026 30.3 855 25.25 5.7 42.2 43 -5.9 21.4
08:00 1026 30.3 855 25.25 5.7 42.3 43 -5.8 21.6
08:05 1026 30.3 855 25.25 5.9 42.6 43 -5.7 21.8
08:10 1026 30.3 855 25.25 5.9 42.6 42 -6.2 20.9
08:15 1026 30.3 855 25.25 6 42.8 43 -5.8 21.6
08:20 1026 30.3 855 25.25 5.8 42.5 44 -5.4 22.4
08:25 1026 30.3 855 25.25 5.1 41.1 49 -4.7 23.5
08:30 1026 30.3 855 25.25 4.6 40.3 49 -5.1 22.9
08:35 1026 30.3 855 25.25 4.8 40.7 48 -5.2 22.6
08:40 1026 30.3 855 25.25 5.2 41.3 45 -5.7 21.8
08:45 1026 30.3 855 25.25 5.4 41.7 46 -5.3 22.5
08:50 1026 30.3 855 25.25 5.6 42 44 -5.8 21.5
08:55 1026 30.3 855 25.25 5.8 42.5 43 -5.9 21.4
09:00 1026 30.3 855 25.25 6 42.8 42 -5.9 21.3
09:05 1026 30.3 855 25.25 6.1 43.1 42 -5.9 21.4
09:10 1026 30.3 855 25.25 6.2 43.1 42 -5.9 21.4
09:15 1026 30.3 855 25.25 6.2 43.2 41 -5.9 21.3
09:20 1026 30.3 855 25.25 6.3 43.4 42 -5.6 21.8
09:25 1026 30.3 855 25.25 6.3 43.4 42 -5.7 21.7
09:30 1026 30.3 855 25.25 6.6 43.9 39 -6.4 20.5
09:35 1026 30.3 855 25.25 6.9 44.4 40 -5.9 21.4
09:40 1026 30.3 855 25.25 7 44.7 39 -5.8 21.5
09:45 1026 30.3 855 25.25 7.3 45.1 38 -6.2 20.9
09:50 1026 30.3 855 25.25 7.6 45.6 38 -5.7 21.7
09:55 1026 30.3 855 25.25 7.7 45.8 40 -5.1 22.8
10:00 1026 30.3 855 25.25 7.3 45.1 40 -5.3 22.5
10:05 1026 30.3 855 25.25 7.2 45 40 -5.6 22
10:10 1026 30.3 855 25.25 7.3 45.1 41 -5.2 22.6
10:15 1026 30.3 855 25.25 7.4 45.3 40 -5.3 22.5
10:20 1026 30.3 855 25.25 7.5 45.4 37 -6.2 20.8
10:25 1026 30.3 855 25.25 7.6 45.7 37 -6.2 20.9
10:30 1026 30.3 855 25.25 7.8 46 37 -6.2 20.9
10:35 1026 30.3 855 25.25 7.9 46.3 36 -6.1 21
10:40 1026 30.3 855 25.25 8 46.4 38 -5.6 21.9
10:45 1026 30.3 855 25.25 8.2 46.8 36 -5.8 21.5
10:50 1026 30.3 855 25.25 8.2 46.8 37 -5.6 21.9
10:55 1026 30.3 855 25.25 8.3 46.9 36 -5.8 21.6
11:00 1026 30.3 855 25.25 7.9 46.2 37 -6 21.2
11:05 1026 30.3 855 25.25 7.9 46.2 36 -6.1 21
11:10 1026 30.3 855 25.25 8.2 46.8 36 -5.9 21.3
11:15 1025 30.27 855 25.25 8.3 46.9 36 -5.9 21.3
11:20 1025 30.27 855 25.25 8.5 47.2 34 -6.7 20
11:25 1025 30.27 854 25.22 8.6 47.5 34 -6.5 20.4
11:30 1025 30.27 854 25.22 8.7 47.7 34 -6.4 20.4
11:35 1025 30.27 854 25.22 8.7 47.6 34 -6.3 20.7
11:40 1025 30.27 854 25.22 8.7 47.6 35 -6 21.2
11:45 1025 30.27 854 25.22 8.6 47.5 36 -5.8 21.6
11:50 1025 30.27 854 25.22 8.5 47.3 36 -5.7 21.7
11:55 1025 30.27 854 25.22 8.4 47.2 37 -5.3 22.4
12:00 1025 30.27 854 25.22 8.5 47.4 34 -6.6 20.2
12:05 1025 30.27 854 25.22 8.5 47.4 35 -6 21.2
12:10 1024 30.24 853 25.19 8.5 47.3 35 -6.1 21
12:15 1024 30.24 853 25.19 8.5 47.3 33 -6.7 19.9
12:20 1024 30.24 853 25.19 8.7 47.7 35 -6 21.3
12:25 1024 30.24 853 25.19 8.9 48 33 -6.7 20
12:30 1024 30.24 853 25.19 8.9 47.9 33 -6.7 19.9
12:35 1024 30.24 853 25.19 8.8 47.9 33 -6.6 20.1
12:40 1024 30.24 853 25.19 9.1 48.4 31 -7.2 19.1
12:45 1024 30.24 853 25.19 9.5 49 30 -7.1 19.3
12:50 1024 30.24 853 25.19 9.8 49.6 29 -7.5 18.6
12:55 1024 30.24 853 25.19 10 50 30 -7 19.4
13:00 1024 30.24 853 25.19 10.1 50.1 30 -6.6 20.1
13:05 1024 30.24 853 25.19 10.2 50.3 30 -6.6 20
13:10 1023 30.21 853 25.19 10.1 50.1 31 -6.3 20.6
13:15 1023 30.21 853 25.19 10 50 31 -6.5 20.4
13:20 1023 30.21 852 25.16 9.9 49.8 31 -6.3 20.7
13:25 1023 30.21 852 25.16 9.7 49.5 30 -6.9 19.6
13:30 1023 30.21 852 25.16 9.6 49.4 31 -6.8 19.8
13:35 1023 30.21 852 25.16 9.7 49.5 30 -6.9 19.7
13:40 1023 30.21 852 25.16 9.8 49.6 30 -6.8 19.7
13:45 1023 30.21 852 25.16 10 50 29 -7.1 19.3
13:50 1023 30.21 852 25.16 10 50.1 30 -6.7 19.9
13:55 1023 30.21 852 25.16 10 49.9 28 -7.6 18.3
14:00 1023 30.21 852 25.16 9.9 49.8 29 -7.3 18.8
14:05 1023 30.21 852 25.16 10 49.9 31 -6.4 20.5
14:10 1022 30.18 852 25.16 10 49.9 31 -6.5 20.3
14:15 1022 30.18 851 25.13 9.7 49.5 33 -5.8 21.6
14:20 1022 30.18 851 25.13 9.5 49 32 -6.3 20.6
14:25 1022 30.18 851 25.13 9.2 48.5 31 -6.9 19.6
14:30 1022 30.18 851 25.13 9.4 48.8 32 -6.4 20.5
14:35 1022 30.18 851 25.13 9.3 48.8 33 -6.1 21
14:40 1022 30.18 851 25.13 8.6 47.4 36 -5.5 22.1
14:45 1022 30.18 851 25.13 8.3 47 37 -5.6 21.9
14:50 1022 30.18 851 25.13 8.4 47.1 35 -6.1 21
14:55 1022 30.18 851 25.13 8.3 47 35 -6.3 20.6
15:00 1022 30.18 851 25.13 8.4 47.2 34 -6.5 20.2
15:05 1022 30.18 851 25.13 8.4 47 35 -6.3 20.7
15:10 1022 30.18 851 25.13 8.6 47.5 34 -6.3 20.7
15:15 1022 30.18 851 25.13 8.9 47.9 34 -6.3 20.7
15:20 1022 30.18 851 25.13 9.1 48.3 33 -6.2 20.9
15:25 1022 30.18 851 25.13 9.2 48.5 35 -5.6 21.9
15:30 1021 30.15 851 25.13 8.9 47.9 35 -5.7 21.7
15:35 1021 30.15 851 25.13 8.9 47.9 34 -6.1 21
15:40 1021 30.15 850 25.1 8.8 47.8 32 -6.9 19.5
15:45 1021 30.15 850 25.1 8.8 47.8 34 -6.3 20.7
15:50 1021 30.15 850 25.1 8.9 47.9 31 -7.5 18.5
15:55 1021 30.15 850 25.1 8.9 48 31 -7.2 19
16:00 1021 30.15 850 25.1 8.9 48.1 35 -5.6 21.9
16:05 1021 30.15 850 25.1 8.7 47.6 34 -6.4 20.5
16:10 1021 30.15 850 25.1 8.4 47.1 33 -6.8 19.8
16:15 1021 30.15 850 25.1 8.4 47.1 31 -7.6 18.4
16:20 1021 30.15 850 25.1 8.6 47.5 33 -6.9 19.5
16:25 1021 30.15 850 25.1 8.4 47.2 33 -7.1 19.3
16:30 1021 30.15 850 25.1 8.3 46.9 33 -7.2 19
16:35 1021 30.15 850 25.1 8.3 46.9 32 -7.4 18.7
16:40 1021 30.15 850 25.1 8.1 46.7 35 -6.3 20.7
16:45 1021 30.15 850 25.1 8 46.3 34 -6.9 19.6
16:50 1020 30.12 850 25.1 8.1 46.5 31 -7.9 17.8
16:55 1020 30.12 849 25.07 8.2 46.8 30 -8.4 16.9
17:00 1020 30.12 849 25.07 8.6 47.5 30 -8 17.7
17:05 1020 30.12 849 25.07 8.9 48.1 29 -8.3 17
17:10 1020 30.12 849 25.07 8.8 47.9 30 -7.9 17.8
17:15 1020 30.12 849 25.07 8.6 47.4 31 -7.7 18.1
17:20 1020 30.12 849 25.07 8.3 46.9 32 -7.4 18.7
17:25 1020 30.12 849 25.07 7.8 46 35 -6.9 19.6
17:30 1019 30.09 849 25.07 7.4 45.2 37 -6.4 20.4
17:35 1019 30.09 849 25.07 7.1 44.8 37 -6.8 19.8
17:40 1019 30.09 848 25.04 7.1 44.7 36 -6.9 19.6
17:45 1019 30.09 848 25.04 7.7 45.8 31 -8.3 17
17:50 1019 30.09 849 25.07 8.8 47.8 29 -8.2 17.3
17:55 1019 30.09 849 25.07 9.3 48.7 30 -7.5 18.5
18:00 1019 30.09 849 25.07 9.2 48.5 30 -7.3 18.8
18:05 1019 30.09 849 25.07 9.2 48.5 30 -7.4 18.7
18:10 1019 30.09 849 25.07 9.2 48.6 30 -7.5 18.5
18:15 1019 30.09 848 25.04 9.5 49.1 30 -7.3 18.9
18:20 1019 30.09 848 25.04 9.4 48.8 30 -7.2 19
18:25 1019 30.09 848 25.04 9.1 48.3 31 -7.1 19.2
18:30 1019 30.09 848 25.04 8.9 48 32 -6.9 19.5
18:35 1019 30.09 848 25.04 8.7 47.7 32 -6.9 19.6
18:40 1019 30.09 848 25.04 8.6 47.4 33 -6.7 19.9
18:45 1019 30.09 848 25.04 8.4 47 35 -6.2 20.8
18:50 1019 30.09 848 25.04 8 46.3 37 -5.9 21.5
18:55 1019 30.09 848 25.04 7.7 45.8 38 -5.8 21.5
19:00 1019 30.09 848 25.04 7.5 45.4 37 -6.2 20.8
19:05 1019 30.09 848 25.04 7.5 45.5 37 -6.2 20.9
19:10 1019 30.09 848 25.04 7.5 45.4 37 -6.5 20.4
19:15 1018 30.06 848 25.04 7.5 45.6 36 -6.5 20.4
19:20 1018 30.06 848 25.04 7.9 46.3 32 -7.7 18.1
19:25 1018 30.06 848 25.04 8.7 47.6 30 -7.8 17.9
19:30 1018 30.06 848 25.04 9 48.3 30 -7.6 18.3
19:35 1018 30.06 848 25.04 9 48.1 31 -7.4 18.7
19:40 1018 30.06 847 25.01 8.8 47.8 30 -7.8 18
19:45 1018 30.06 847 25.01 8.8 47.8 30 -7.9 17.8
19:50 1018 30.06 847 25.01 8.8 47.9 30 -8 17.5
19:55 1018 30.06 847 25.01 8.8 47.9 29 -8.3 17
20:00 1018 30.06 847 25.01 8.8 47.8 29 -8.1 17.4
20:05 1018 30.06 847 25.01 8.8 47.8 29 -8.3 17.1
20:10 1018 30.06 847 25.01 8.7 47.6 30 -8.1 17.4
20:15 1018 30.06 847 25.01 8.7 47.7 28 -8.6 16.5
20:20 1018 30.06 847 25.01 8.8 47.9 29 -8.5 16.8
20:25 1018 30.06 847 25.01 8.8 47.8 29 -8.2 17.3
20:30 1018 30.06 847 25.01 8.7 47.6 30 -8.1 17.4
20:35 1017 30.03 847 25.01 8.7 47.7 30 -8.1 17.5
20:40 1017 30.03 847 25.01 8.7 47.7 30 -8.1 17.4
20:45 1017 30.03 847 25.01 8.6 47.5 30 -7.8 18
20:50 1017 30.03 847 25.01 8.3 47 32 -7.4 18.6
20:55 1017 30.03 846 24.98 8 46.5 32 -7.5 18.5
21:00 1017 30.03 846 24.98 8 46.3 33 -7.4 18.6
21:05 1017 30.03 846 24.98 8 46.3 33 -7.4 18.7
21:10 1017 30.03 846 24.98 8 46.3 33 -7.4 18.6
21:15 1017 30.03 846 24.98 7.8 46 33 -7.6 18.3
21:20 1017 30.03 846 24.98 7.8 46.1 31 -8.3 17
21:25 1017 30.03 846 24.98 8.2 46.7 30 -8.4 17
21:30 1017 30.03 846 24.98 8.2 46.7 32 -7.7 18.2
21:35 1017 30.03 846 24.98 7.8 46.1 33 -7.5 18.5
21:40 1017 30.03 846 24.98 7.5 45.5 31 -8.5 16.8
21:45 1017 30.03 846 24.98 8.3 46.9 29 -8.9 16
21:50 1017 30.03 846 24.98 8.8 47.9 29 -8.4 16.8
21:55 1017 30.03 846 24.98 8.8 47.9 28 -8.6 16.5
22:00 1017 30.03 846 24.98 9.1 48.3 27 -9.1 15.7
22:05 1017 30.03 846 24.98 9.1 48.5 27 -8.7 16.3
22:10 1016 30 846 24.98 9.3 48.7 28 -8.3 17.1
22:15 1016 30 846 24.98 9.2 48.6 28 -8.4 16.9
22:20 1016 30 846 24.98 9.3 48.7 27 -8.6 16.5
22:25 1016 30 846 24.98 9.3 48.8 28 -8.2 17.3
22:30 1016 30 846 24.98 9.2 48.5 29 -8.1 17.4
22:35 1016 30 845 24.95 9.4 48.8 28 -8.3 17.1
22:40 1016 30 845 24.95 9.5 49 29 -7.6 18.3
22:45 1016 30 845 24.95 9 48.3 31 -7.2 19
22:50 1016 30 845 24.95 9 48.2 29 -7.9 17.7
22:55 1016 30 845 24.95 9 48.2 31 -7.1 19.2
23:00 1016 30 845 24.95 8.8 47.8 31 -7.3 18.9
23:05 1016 30 845 24.95 8.8 47.9 31 -7.5 18.5
23:10 1016 30 845 24.95 9.1 48.4 31 -6.9 19.5
23:15 1016 30 845 24.95 9 48.1 32 -6.7 19.9
23:20 1016 30 845 24.95 8.6 47.5 33 -6.8 19.8
23:25 1015 29.97 845 24.95 8.7 47.7 32 -7.1 19.3
23:30 1015 29.97 845 24.95 9 48.1 32 -6.8 19.7
23:35 1015 29.97 845 24.95 9.1 48.3 32 -6.6 20.1
23:40 1015 29.97 845 24.95 9.3 48.7 31 -6.9 19.6
23:45 1015 29.97 845 24.95 9.4 48.8 32 -6.6 20.1
23:50 1015 29.97 845 24.95 9.1 48.4 32 -6.7 20
23:55 1015 29.97 845 24.95 9.1 48.5 32 -6.9 19.7
24:00 1015 29.97 845 24.95 9 48.3 32 -6.6 20.1